createdAt,value
2017-09-21T00:02:16.365Z,18.80
2017-09-21T00:04:43.927Z,27.70
2017-09-21T00:07:11.429Z,18.57
2017-09-21T00:09:38.937Z,13.90
2017-09-21T00:12:06.397Z,11.37
2017-09-21T00:14:33.858Z,7.63
2017-09-21T00:17:01.416Z,9.20
2017-09-21T00:19:28.889Z,18.00
2017-09-21T00:21:56.359Z,17.13
2017-09-21T00:24:24.204Z,12.87
2017-09-21T00:26:51.759Z,20.10
2017-09-21T00:29:19.228Z,19.00
2017-09-21T00:31:46.699Z,16.17
2017-09-21T00:34:14.156Z,18.90
2017-09-21T00:36:41.994Z,16.47
2017-09-21T00:39:09.456Z,13.10
2017-09-21T00:41:36.910Z,11.37
2017-09-21T00:44:04.374Z,12.60
2017-09-21T00:46:31.840Z,13.67
2017-09-21T00:48:59.305Z,12.07
2017-09-21T00:51:26.766Z,8.70
2017-09-21T00:53:54.607Z,10.47
2017-09-21T00:56:22.069Z,10.47
2017-09-21T00:58:49.530Z,10.60
2017-09-21T01:01:17.006Z,8.27
2017-09-21T01:03:44.463Z,9.60
2017-09-21T01:06:11.930Z,12.77
2017-09-21T01:08:39.454Z,8.07
2017-09-21T01:11:06.934Z,9.23
2017-09-21T01:13:34.391Z,12.33
2017-09-21T01:16:02.262Z,9.97
2017-09-21T01:18:29.723Z,12.03
2017-09-21T01:20:57.191Z,12.67
2017-09-21T01:23:24.660Z,13.33
2017-09-21T01:25:52.118Z,7.70
2017-09-21T01:28:20.443Z,7.30
2017-09-21T01:30:47.904Z,9.77
2017-09-21T01:33:15.388Z,13.80
2017-09-21T01:35:42.852Z,14.33
2017-09-21T01:38:10.328Z,11.00
2017-09-21T01:40:37.785Z,12.43
2017-09-21T01:43:05.518Z,9.00
2017-09-21T01:45:32.980Z,11.80
2017-09-21T01:48:00.435Z,13.00
2017-09-21T01:50:27.921Z,12.77
2017-09-21T01:52:55.379Z,10.87
2017-09-21T01:55:22.850Z,10.37
2017-09-21T01:57:50.298Z,8.80
2017-09-21T02:00:17.759Z,14.33
2017-09-21T02:02:45.212Z,10.57
2017-09-21T02:05:12.682Z,12.70
2017-09-21T02:07:40.220Z,16.73
2017-09-21T02:10:08.043Z,14.00
2017-09-21T02:12:35.495Z,11.40
2017-09-21T02:15:02.958Z,16.93
2017-09-21T02:17:30.436Z,10.27
2017-09-21T02:19:57.892Z,12.57
2017-09-21T02:22:25.428Z,11.07
2017-09-21T02:24:52.886Z,12.07
2017-09-21T02:27:20.741Z,14.50
2017-09-21T02:29:48.201Z,18.60
2017-09-21T02:32:15.651Z,8.63
2017-09-21T02:34:43.262Z,8.93
2017-09-21T02:37:10.722Z,16.17
2017-09-21T02:39:38.184Z,16.03
2017-09-21T02:42:05.689Z,11.67
2017-09-21T02:44:33.455Z,11.20
2017-09-21T02:47:00.918Z,14.75
2017-09-21T02:49:28.383Z,14.03
2017-09-21T02:51:55.926Z,20.63
2017-09-21T02:54:23.479Z,16.03
2017-09-21T02:56:50.936Z,15.20
2017-09-21T02:59:18.389Z,17.67
2017-09-21T03:01:46.140Z,15.83
2017-09-21T03:04:13.606Z,9.73
2017-09-21T03:06:41.073Z,12.23
2017-09-21T03:09:08.641Z,11.10
2017-09-21T03:11:36.218Z,17.37
2017-09-21T03:14:03.768Z,14.35
2017-09-21T03:16:31.319Z,14.67
2017-09-21T03:18:59.083Z,12.30
2017-09-21T03:21:26.567Z,12.47
2017-09-21T03:23:54.023Z,12.07
2017-09-21T03:26:21.487Z,14.43
2017-09-21T03:28:49.014Z,22.67
2017-09-21T03:31:16.489Z,58.23
2017-09-21T03:33:43.955Z,33.70
2017-09-21T03:36:11.438Z,35.50
2017-09-21T03:38:38.900Z,31.83
2017-09-21T03:41:06.716Z,24.10
2017-09-21T03:43:34.176Z,22.77
2017-09-21T03:46:01.733Z,23.03
2017-09-21T03:48:29.214Z,25.73
2017-09-21T03:50:56.693Z,25.03
2017-09-21T03:53:24.509Z,25.60
2017-09-21T03:55:51.976Z,29.73
2017-09-21T03:58:19.511Z,27.03
2017-09-21T04:00:46.982Z,23.70
2017-09-21T04:03:14.460Z,31.00
2017-09-21T04:05:41.950Z,27.40
2017-09-21T04:08:09.430Z,24.55
2017-09-21T04:10:36.896Z,25.30
2017-09-21T04:13:04.352Z,24.20
2017-09-21T04:15:31.814Z,20.40
2017-09-21T04:17:59.272Z,20.97
2017-09-21T04:20:26.763Z,23.10
2017-09-21T04:22:54.355Z,25.27
2017-09-21T04:25:21.825Z,26.60
2017-09-21T04:27:49.303Z,24.30
2017-09-21T04:30:17.087Z,20.87
2017-09-21T04:32:44.543Z,24.93
2017-09-21T04:35:12.033Z,27.10
2017-09-21T04:37:39.521Z,15.77
2017-09-21T04:40:06.976Z,14.27
2017-09-21T04:42:34.439Z,9.97
2017-09-21T04:45:01.914Z,20.03
2017-09-21T04:47:29.382Z,18.27
2017-09-21T04:49:56.848Z,17.90
2017-09-21T04:52:24.634Z,14.43
2017-09-21T04:54:52.106Z,18.07
2017-09-21T04:57:19.585Z,12.40
2017-09-21T04:59:47.078Z,12.15
2017-09-21T05:02:14.542Z,11.20
2017-09-21T05:04:42.413Z,12.70
2017-09-21T05:07:09.954Z,9.47
2017-09-21T05:09:37.411Z,10.90
2017-09-21T05:12:05.052Z,10.10
2017-09-21T05:14:32.563Z,15.53
2017-09-21T05:17:00.051Z,13.70
2017-09-21T05:19:27.547Z,11.80
2017-09-21T05:21:55.015Z,13.90
2017-09-21T05:24:22.510Z,18.33
2017-09-21T05:26:50.344Z,21.75
2017-09-21T05:29:17.889Z,16.80
2017-09-21T05:31:45.469Z,20.77
2017-09-21T05:34:12.955Z,23.43
2017-09-21T05:36:40.504Z,16.23
2017-09-21T05:39:07.995Z,10.07
2017-09-21T05:41:35.495Z,7.10
2017-09-21T05:44:02.964Z,7.13
2017-09-21T05:46:30.423Z,9.83
2017-09-21T05:48:58.299Z,6.03
2017-09-21T05:51:25.760Z,9.40
2017-09-21T05:53:53.241Z,15.93
2017-09-21T05:56:20.727Z,14.33
2017-09-21T05:58:48.192Z,11.13
2017-09-21T06:01:15.663Z,7.03
2017-09-21T06:03:43.117Z,7.80
2017-09-21T06:06:10.883Z,7.03
2017-09-21T06:08:38.512Z,8.40
2017-09-21T06:11:05.971Z,9.17
2017-09-21T06:13:33.460Z,13.13
2017-09-21T06:16:00.958Z,16.65
2017-09-21T06:18:28.466Z,19.30
2017-09-21T06:20:55.919Z,9.43
2017-09-21T06:23:23.380Z,8.70
2017-09-21T06:25:50.842Z,8.30
2017-09-21T06:28:18.625Z,6.53
2017-09-21T06:30:46.112Z,8.35
2017-09-21T06:33:13.576Z,6.13
2017-09-21T06:35:41.041Z,6.93
2017-09-21T06:38:08.509Z,8.40
2017-09-21T06:40:35.991Z,4.90
2017-09-21T06:43:03.455Z,5.37
2017-09-21T06:45:31.338Z,5.10
2017-09-21T06:47:58.805Z,6.30
2017-09-21T06:50:26.264Z,5.90
2017-09-21T06:52:53.740Z,5.20
2017-09-21T06:55:21.199Z,4.90
2017-09-21T06:57:48.667Z,4.80
2017-09-21T07:00:16.116Z,4.37
2017-09-21T07:02:43.632Z,6.07
2017-09-21T07:05:11.199Z,8.90
2017-09-21T07:07:39.042Z,11.17
2017-09-21T07:10:06.523Z,23.30
2017-09-21T07:12:34.055Z,31.47
2017-09-21T07:15:01.564Z,8.50
2017-09-21T07:17:29.040Z,62.87
2017-09-21T07:19:56.529Z,22.97
2017-09-21T07:22:24.002Z,8.87
2017-09-21T07:24:51.930Z,14.40
2017-09-21T07:27:19.406Z,17.20
2017-09-21T07:29:46.867Z,11.43
2017-09-21T07:32:14.356Z,10.13
2017-09-21T07:34:41.833Z,13.73
2017-09-21T07:37:09.346Z,8.43
2017-09-21T07:39:36.790Z,9.50
2017-09-21T07:42:04.368Z,8.37
2017-09-21T07:44:31.828Z,8.53
2017-09-21T07:46:59.391Z,7.83
2017-09-21T07:49:26.855Z,16.50
2017-09-21T07:51:54.327Z,11.40
2017-09-21T07:54:21.818Z,23.43
2017-09-21T07:56:49.296Z,28.20
2017-09-21T07:59:17.093Z,24.27
2017-09-21T08:01:44.565Z,11.93
2017-09-21T08:04:12.091Z,10.27
2017-09-21T08:06:39.560Z,24.73
2017-09-21T08:09:07.040Z,20.17
2017-09-21T08:11:34.538Z,14.27
2017-09-21T08:14:02.006Z,15.90
2017-09-21T08:16:29.481Z,6.57
2017-09-21T08:18:56.939Z,10.73
2017-09-21T08:21:24.421Z,5.20
2017-09-21T08:23:51.878Z,7.23
2017-09-21T08:26:19.728Z,5.13
2017-09-21T08:28:47.209Z,6.80
2017-09-21T08:31:14.686Z,4.67
2017-09-21T08:33:42.333Z,8.10
2017-09-21T08:36:09.800Z,8.90
2017-09-21T08:38:37.301Z,18.65
2017-09-21T08:41:04.766Z,10.00
2017-09-21T08:43:32.232Z,10.90
2017-09-21T08:45:59.779Z,11.77
2017-09-21T08:48:27.512Z,9.47
2017-09-21T08:50:55.009Z,8.27
2017-09-21T08:53:22.468Z,6.33
2017-09-21T08:55:49.936Z,18.47
2017-09-21T08:58:17.422Z,23.17
2017-09-21T09:00:44.935Z,18.40
2017-09-21T09:03:12.408Z,13.03
2017-09-21T09:05:39.889Z,9.63
2017-09-21T09:08:07.359Z,13.63
2017-09-21T09:10:34.844Z,11.20
2017-09-21T09:13:03.015Z,10.10
2017-09-21T09:15:30.810Z,11.87
2017-09-21T09:17:58.284Z,18.80
2017-09-21T09:20:25.760Z,20.90
2017-09-21T09:22:53.278Z,20.03
2017-09-21T09:25:20.737Z,27.03
2017-09-21T09:27:48.223Z,20.50
2017-09-21T09:30:15.695Z,23.07
2017-09-21T09:32:43.174Z,21.50
2017-09-21T09:35:10.645Z,23.37
2017-09-21T09:37:38.420Z,15.90
2017-09-21T09:40:05.995Z,19.03
2017-09-21T09:42:33.498Z,14.47
2017-09-21T09:45:01.016Z,20.83
2017-09-21T09:47:28.494Z,22.17
2017-09-21T09:49:55.979Z,28.10
2017-09-21T09:52:23.466Z,18.30
2017-09-21T09:54:50.976Z,15.00
2017-09-21T09:57:18.494Z,15.80
2017-09-21T09:59:46.274Z,18.53
2017-09-21T10:02:13.735Z,20.27
2017-09-21T10:04:41.203Z,20.80
2017-09-21T10:07:08.683Z,20.83
2017-09-21T10:09:36.148Z,22.60
2017-09-21T10:12:04.079Z,17.30
2017-09-21T10:14:31.533Z,14.90
2017-09-21T10:16:59.007Z,17.00
2017-09-21T10:19:26.486Z,28.00
2017-09-21T10:21:53.961Z,28.67
2017-09-21T10:24:21.437Z,25.33
2017-09-21T10:26:48.950Z,19.80
2017-09-21T10:29:16.705Z,16.07
2017-09-21T10:31:44.175Z,24.67
2017-09-21T10:34:11.689Z,17.17
2017-09-21T10:36:39.173Z,20.30
2017-09-21T10:39:06.655Z,21.40
2017-09-21T10:41:34.142Z,21.00
2017-09-21T10:44:01.602Z,18.47
2017-09-21T10:46:29.105Z,18.67
2017-09-21T10:48:56.584Z,16.48
2017-09-21T10:51:24.391Z,15.33
2017-09-21T10:53:51.860Z,19.37
2017-09-21T10:56:19.338Z,19.43
2017-09-21T10:58:46.832Z,24.13
2017-09-21T11:01:14.290Z,15.20
2017-09-21T11:03:42.106Z,18.07
2017-09-21T11:06:09.582Z,10.23
2017-09-21T11:08:37.053Z,14.03
2017-09-21T11:11:04.559Z,14.37
2017-09-21T11:13:32.031Z,14.50
2017-09-21T11:15:59.519Z,23.27
2017-09-21T11:18:26.994Z,19.03
2017-09-21T11:20:54.815Z,21.73
2017-09-21T11:23:22.306Z,21.60
2017-09-21T11:25:49.787Z,27.93
2017-09-21T11:28:18.006Z,24.70
2017-09-21T11:30:45.480Z,19.80
2017-09-21T11:33:12.966Z,23.83
2017-09-21T11:35:40.457Z,19.97
2017-09-21T11:38:07.936Z,22.60
2017-09-21T11:40:35.489Z,14.27
2017-09-21T11:43:02.972Z,16.27
2017-09-21T11:45:30.451Z,14.73
2017-09-21T11:47:57.927Z,14.07
2017-09-21T11:50:25.404Z,16.17
2017-09-21T11:52:52.890Z,19.07
2017-09-21T11:55:20.356Z,17.10
2017-09-21T11:57:47.896Z,11.07
2017-09-21T12:00:15.389Z,13.27
2017-09-21T12:02:42.896Z,9.80
2017-09-21T12:05:10.407Z,9.97
2017-09-21T12:07:38.226Z,11.23
2017-09-21T12:10:05.728Z,6.63
2017-09-21T12:12:33.204Z,8.47
2017-09-21T12:15:00.720Z,7.63
2017-09-21T12:17:29.675Z,7.53
2017-09-21T12:19:57.216Z,9.77
2017-09-21T12:22:24.759Z,6.23
2017-09-21T12:24:52.585Z,6.50
2017-09-21T12:27:20.074Z,11.50
2017-09-21T12:29:47.549Z,8.90
2017-09-21T12:32:15.062Z,68.03
2017-09-21T12:34:42.608Z,8.87
2017-09-21T12:37:10.459Z,5.60
2017-09-21T12:39:37.975Z,9.23
2017-09-21T12:42:05.464Z,5.97
2017-09-21T12:44:33.072Z,7.50
2017-09-21T12:47:01.070Z,8.67
2017-09-21T12:49:28.547Z,6.10
2017-09-21T12:51:56.052Z,5.90
2017-09-21T12:54:23.802Z,14.00
2017-09-21T12:56:51.284Z,11.50
2017-09-21T12:59:18.760Z,12.93
2017-09-21T13:01:46.292Z,7.63
2017-09-21T13:04:13.767Z,11.03
2017-09-21T13:06:41.266Z,16.60
2017-09-21T13:09:08.745Z,4.40
2017-09-21T13:11:36.240Z,12.17
2017-09-21T13:14:03.698Z,8.30
2017-09-21T13:16:31.174Z,7.07
2017-09-21T13:18:58.635Z,8.77
2017-09-21T13:21:26.365Z,5.73
2017-09-21T13:23:53.839Z,13.33
2017-09-21T13:26:21.680Z,9.43
2017-09-21T13:28:49.231Z,9.40
2017-09-21T13:31:16.706Z,4.90
2017-09-21T13:33:44.216Z,5.20
2017-09-21T13:36:11.675Z,5.67
2017-09-21T13:38:39.474Z,3.30
2017-09-21T13:41:06.941Z,5.63
2017-09-21T13:43:34.456Z,10.57
2017-09-21T13:46:01.931Z,9.80
2017-09-21T13:48:29.397Z,5.70
2017-09-21T13:50:56.996Z,3.40
2017-09-21T13:53:24.471Z,3.87
2017-09-21T13:55:51.976Z,5.97
2017-09-21T13:58:19.456Z,3.20
2017-09-21T14:00:46.973Z,3.73
2017-09-21T14:03:14.467Z,3.40
2017-09-21T14:05:41.961Z,5.37
2017-09-21T14:08:09.422Z,5.63
2017-09-21T14:10:37.190Z,6.00
2017-09-21T14:13:04.686Z,4.00
2017-09-21T14:15:32.188Z,5.00
2017-09-21T14:17:59.679Z,3.10
2017-09-21T14:20:27.141Z,5.70
2017-09-21T14:22:54.626Z,4.50
2017-09-21T14:25:22.141Z,4.80
2017-09-21T14:27:49.612Z,6.20
2017-09-21T14:30:17.215Z,5.10
2017-09-21T14:32:45.192Z,4.30
2017-09-21T14:35:12.734Z,2.27
2017-09-21T14:37:41.284Z,3.53
2017-09-21T14:40:08.789Z,2.00
2017-09-21T14:42:36.292Z,3.77
2017-09-21T14:45:03.805Z,4.90
2017-09-21T14:47:31.306Z,2.17
2017-09-21T14:49:59.247Z,6.60
2017-09-21T14:52:26.803Z,7.53
2017-09-21T14:54:54.282Z,3.30
2017-09-21T14:57:21.761Z,3.80
2017-09-21T14:59:49.222Z,2.80
2017-09-21T15:02:16.715Z,2.40
2017-09-21T15:04:44.198Z,4.00
2017-09-21T15:07:11.698Z,8.73
2017-09-21T15:09:39.154Z,4.17
2017-09-21T15:12:06.679Z,9.40
2017-09-21T15:14:34.149Z,3.20
2017-09-21T15:17:01.615Z,3.23
2017-09-21T15:19:29.064Z,3.23
2017-09-21T15:21:56.554Z,3.10
2017-09-21T15:24:24.017Z,5.17
2017-09-21T15:26:51.876Z,6.20
2017-09-21T15:29:19.361Z,3.40
2017-09-21T15:31:46.838Z,3.43
2017-09-21T15:34:14.348Z,1.93
2017-09-21T15:36:41.846Z,2.13
2017-09-21T15:39:09.315Z,9.53
2017-09-21T15:41:36.781Z,9.87
2017-09-21T15:44:04.234Z,4.43
2017-09-21T15:46:31.699Z,3.23
2017-09-21T15:48:59.254Z,3.70
2017-09-21T15:51:26.712Z,4.20
2017-09-21T15:53:54.258Z,2.00
2017-09-21T15:56:21.816Z,2.80
2017-09-21T15:58:49.645Z,3.70
2017-09-21T16:01:17.137Z,5.73
2017-09-21T16:03:44.640Z,5.40
2017-09-21T16:06:12.111Z,5.70
2017-09-21T16:08:39.584Z,4.63
2017-09-21T16:11:07.072Z,2.50
2017-09-21T16:13:34.551Z,2.70
2017-09-21T16:16:02.072Z,3.03
2017-09-21T16:18:29.553Z,4.03
2017-09-21T16:20:57.084Z,4.03
2017-09-21T16:23:24.601Z,4.87
2017-09-21T16:25:53.097Z,17.97
2017-09-21T16:28:20.591Z,14.20
2017-09-21T16:30:48.080Z,11.80
2017-09-21T16:33:15.586Z,6.03
2017-09-21T16:35:43.107Z,5.00
2017-09-21T16:38:10.921Z,4.20
2017-09-21T16:40:38.380Z,5.07
2017-09-21T16:43:05.838Z,1.90
2017-09-21T16:45:33.312Z,3.23
2017-09-21T16:48:00.797Z,6.63
2017-09-21T16:50:28.330Z,16.40
2017-09-21T16:52:55.800Z,39.40
2017-09-21T16:55:23.627Z,40.70
2017-09-21T16:57:51.172Z,45.37
2017-09-21T17:00:18.675Z,26.13
2017-09-21T17:02:46.177Z,13.40
2017-09-21T17:05:13.646Z,6.63
2017-09-21T17:07:41.202Z,4.40
2017-09-21T17:10:08.663Z,4.80
2017-09-21T17:12:36.431Z,8.13
2017-09-21T17:15:03.904Z,15.53
2017-09-21T17:17:31.420Z,10.07
2017-09-21T17:19:58.908Z,5.03
2017-09-21T17:22:26.444Z,4.23
2017-09-21T17:24:53.961Z,3.10
2017-09-21T17:27:21.427Z,3.77
2017-09-21T17:29:48.982Z,4.33
2017-09-21T17:32:16.444Z,4.97
2017-09-21T17:34:44.291Z,5.07
2017-09-21T17:37:11.780Z,4.17
2017-09-21T17:39:39.250Z,5.30
2017-09-21T17:42:06.752Z,5.30
2017-09-21T17:44:34.206Z,4.47
2017-09-21T17:47:01.697Z,4.93
2017-09-21T17:49:29.155Z,4.07
2017-09-21T17:51:56.628Z,4.13
2017-09-21T17:54:24.224Z,5.57
2017-09-21T17:56:51.977Z,4.60
2017-09-21T17:59:19.448Z,6.33
2017-09-21T18:01:46.929Z,5.20
2017-09-21T18:04:14.429Z,5.70
2017-09-21T18:06:41.910Z,5.03
2017-09-21T18:09:09.403Z,4.40
2017-09-21T18:11:36.879Z,5.60
2017-09-21T18:14:04.830Z,4.77
2017-09-21T18:16:32.320Z,5.03
2017-09-21T18:18:59.800Z,8.37
2017-09-21T18:21:27.264Z,5.20
2017-09-21T18:23:54.783Z,4.90
2017-09-21T18:26:22.318Z,4.90
2017-09-21T18:28:49.828Z,5.80
2017-09-21T18:31:17.455Z,5.30
2017-09-21T18:33:44.951Z,4.80
2017-09-21T18:36:12.496Z,7.67
2017-09-21T18:38:40.009Z,6.50
2017-09-21T18:41:07.772Z,6.67
2017-09-21T18:43:35.241Z,5.20
2017-09-21T18:46:02.710Z,23.63
2017-09-21T18:48:30.187Z,18.33
2017-09-21T18:50:57.649Z,10.60
2017-09-21T18:53:25.483Z,6.47
2017-09-21T18:55:53.016Z,7.40
2017-09-21T18:58:20.487Z,8.17
2017-09-21T19:00:47.960Z,8.37
2017-09-21T19:03:15.441Z,8.67
2017-09-21T19:05:42.933Z,7.03
2017-09-21T19:08:10.401Z,7.60
2017-09-21T19:10:38.252Z,11.70
2017-09-21T19:13:05.716Z,7.57
2017-09-21T19:15:33.174Z,8.23
2017-09-21T19:18:00.659Z,7.80
2017-09-21T19:20:28.126Z,9.80
2017-09-21T19:22:55.633Z,10.03
2017-09-21T19:25:23.127Z,7.43
2017-09-21T19:27:50.616Z,8.30
2017-09-21T19:30:18.112Z,8.47
2017-09-21T19:32:45.637Z,8.07
2017-09-21T19:35:13.158Z,10.13
2017-09-21T19:37:40.961Z,8.57
2017-09-21T19:40:08.462Z,10.10
2017-09-21T19:42:35.934Z,17.03
2017-09-21T19:45:03.449Z,9.33
2017-09-21T19:47:31.153Z,7.57
2017-09-21T19:49:58.663Z,11.80
2017-09-21T19:52:26.182Z,6.73
2017-09-21T19:54:53.667Z,8.07
2017-09-21T19:57:21.274Z,10.00
2017-09-21T19:59:48.787Z,11.40
2017-09-21T20:02:16.294Z,10.73
2017-09-21T20:04:44.180Z,10.30
2017-09-21T20:07:11.668Z,7.27
2017-09-21T20:09:39.143Z,10.87
2017-09-21T20:12:06.621Z,12.43
2017-09-21T20:14:34.095Z,10.67
2017-09-21T20:17:01.581Z,11.77
2017-09-21T20:19:29.159Z,13.53
2017-09-21T20:21:56.659Z,7.73
2017-09-21T20:24:24.145Z,11.17
2017-09-21T20:26:51.922Z,13.63
2017-09-21T20:29:19.441Z,13.13
2017-09-21T20:31:46.950Z,10.97
2017-09-21T20:34:14.446Z,8.80
2017-09-21T20:36:41.938Z,9.60
2017-09-21T20:39:09.436Z,14.63
2017-09-21T20:41:36.909Z,9.20
2017-09-21T20:44:04.430Z,12.70
2017-09-21T20:46:31.934Z,12.60
2017-09-21T20:48:59.407Z,13.40
2017-09-21T20:51:26.910Z,11.50
2017-09-21T20:53:54.746Z,12.40
2017-09-21T20:56:22.215Z,15.27
2017-09-21T20:58:49.728Z,14.43
2017-09-21T21:01:17.234Z,10.47
2017-09-21T21:03:44.769Z,10.67
2017-09-21T21:06:12.360Z,10.53
2017-09-21T21:08:39.856Z,9.40
2017-09-21T21:11:07.327Z,9.50
2017-09-21T21:13:34.844Z,11.73
2017-09-21T21:16:02.655Z,11.13
2017-09-21T21:18:30.157Z,8.17
2017-09-21T21:20:57.667Z,9.73
2017-09-21T21:23:25.158Z,11.60
2017-09-21T21:25:52.618Z,8.70
2017-09-21T21:28:20.095Z,11.00
2017-09-21T21:30:47.569Z,13.77
2017-09-21T21:33:15.063Z,16.23
2017-09-21T21:35:42.553Z,14.83
2017-09-21T21:38:10.028Z,14.60
2017-09-21T21:40:37.588Z,12.70
2017-09-21T21:43:05.059Z,16.10
2017-09-21T21:45:32.563Z,65.60
2017-09-21T21:48:00.023Z,14.60
2017-09-21T21:50:27.943Z,10.83
2017-09-21T21:52:55.424Z,11.57
2017-09-21T21:55:22.961Z,12.37
2017-09-21T21:57:50.472Z,10.40
2017-09-21T22:00:17.942Z,12.87
2017-09-21T22:02:45.435Z,13.13
2017-09-21T22:05:12.914Z,10.90
2017-09-21T22:07:40.679Z,9.43
2017-09-21T22:10:08.133Z,9.53
2017-09-21T22:12:35.598Z,11.50
2017-09-21T22:15:03.100Z,12.00
2017-09-21T22:17:30.593Z,10.67
2017-09-21T22:19:58.370Z,12.43
2017-09-21T22:22:25.838Z,17.70
2017-09-21T22:24:53.325Z,13.50
2017-09-21T22:27:20.802Z,11.57
2017-09-21T22:29:48.307Z,17.93
2017-09-21T22:32:15.815Z,10.57
2017-09-21T22:34:43.293Z,19.73
2017-09-21T22:37:11.097Z,13.90
2017-09-21T22:39:38.579Z,10.20
2017-09-21T22:42:06.039Z,13.20
2017-09-21T22:44:33.516Z,7.57
2017-09-21T22:47:00.979Z,10.13
2017-09-21T22:49:28.463Z,9.70
2017-09-21T22:51:55.929Z,12.70
2017-09-21T22:54:23.393Z,12.40
2017-09-21T22:56:50.855Z,11.70
2017-09-21T22:59:18.622Z,10.63
2017-09-21T23:01:46.090Z,10.10
2017-09-21T23:04:13.586Z,9.20
2017-09-21T23:06:41.060Z,11.33
2017-09-21T23:09:08.518Z,15.27
2017-09-21T23:11:35.995Z,16.33
2017-09-21T23:14:03.492Z,13.90
2017-09-21T23:16:30.978Z,11.47
2017-09-21T23:18:58.443Z,16.23
2017-09-21T23:21:25.916Z,9.90
2017-09-21T23:23:53.375Z,18.73
2017-09-21T23:26:21.178Z,14.77
2017-09-21T23:28:48.643Z,12.97
2017-09-21T23:31:16.105Z,13.03
2017-09-21T23:33:43.585Z,12.03
2017-09-21T23:36:11.118Z,14.07
2017-09-21T23:38:38.602Z,13.70
2017-09-21T23:41:06.059Z,8.60
2017-09-21T23:43:33.537Z,9.00
2017-09-21T23:46:01.013Z,18.20
2017-09-21T23:48:28.499Z,12.53
2017-09-21T23:50:55.981Z,10.30
2017-09-21T23:53:23.852Z,11.57
2017-09-21T23:55:51.322Z,13.17
2017-09-21T23:58:18.774Z,11.03
